Time;durP1;ratioP1;P1;durP2;ratioP2;P2;SDS_P1;SDS_P2;PMS_P1;PMS_P2;Temp;Humidity;BMP_temperature;BMP_pressure;BME280_temperature;BME280_humidity;BME280_pressure;Samples;Min_cycle;Max_cycle;Signal;HPM_P1;HPM_P2
2022/05/22 00:01:30;;;;;;;;;;;;;;;;;;5032550;28;1147;-71
2022/05/22 00:03:56;;;;;;;;;;;;;;;;;;5032458;28;1407;-69
2022/05/22 00:06:23;;;;;;;;;;;;;;;;;;5030724;28;1987;-71
2022/05/22 00:08:49;;;;;;;;;;;;;;;;;;5032363;28;1083;-70
2022/05/22 00:11:15;;;;;;;;;;;;;;;;;;5031954;28;1123;-70
2022/05/22 00:13:41;;;;;;;;;;;;;;;;;;5032256;28;933;-70
2022/05/22 00:18:53;;;;;;;;;;;;;;;;;;5030889;28;957;-70
2022/05/22 00:21:19;;;;;;;;;;;;;;;;;;5031358;28;1052;-71
2022/05/22 00:23:45;;;;;;;;;;;;;;;;;;5032021;28;1344;-71
2022/05/22 00:26:11;;;;;;;;;;;;;;;;;;5031379;28;1919;-70
2022/05/22 00:28:37;;;;;;;;;;;;;;;;;;5031577;28;1333;-71
2022/05/22 00:31:03;;;;;;;;;;;;;;;;;;5031783;28;901;-71
2022/05/22 00:33:30;;;;;;;;;;;;;;;;;;5030944;28;1136;-71
2022/05/22 00:35:57;;;;;;;;;;;;;;;;;;5030571;28;1331;-70
2022/05/22 00:38:24;;;;;;;;;;;;;;;;;;5030364;28;1151;-71
2022/05/22 00:40:50;;;;;;;;;;;;;;;;;;5031710;28;842;-70
2022/05/22 00:43:24;;;;;;;;;;;;;;;;;;5031604;28;1421;-70
2022/05/22 00:45:50;;;;;;;;;;;;;;;;;;5031469;28;1973;-69
2022/05/22 00:48:16;;;;;;;;;;;;;;;;;;5030099;28;1140;-71
2022/05/22 00:50:43;;;;;;;;;;;;;;;;;;5030033;28;1461;-70
2022/05/22 00:53:10;;;;;;;;;;;;;;;;;;5031131;28;802;-70
2022/05/22 00:55:37;;;;;;;;;;;;;;;;;;5030229;28;1403;-71
2022/05/22 00:58:06;;;;;;;;;;;;;;;;;;5031102;28;948;-71
2022/05/22 01:00:34;;;;;;;;;;;;;;;;;;5030972;28;1198;-70
2022/05/22 01:05:46;;;;;;;;;;;;;;;;;;5031191;28;1922;-71
2022/05/22 01:08:13;;;;;;;;;;;;;;;;;;5031025;28;1001;-71
2022/05/22 01:10:40;;;;;;;;;;;;;;;;;;5031268;28;897;-71
2022/05/22 01:13:07;;;;;;;;;;;;;;;;;;5029840;28;1420;-71
2022/05/22 01:15:33;;;;;;;;;;;;;;;;;;5031102;28;1423;-71
2022/05/22 01:17:59;;;;;;;;;;;;;;;;;;5029187;28;1332;-70
2022/05/22 01:20:26;;;;;;;;;;;;;;;;;;5029655;28;1553;-70
2022/05/22 01:22:53;;;;;;;;;;;;;;;;;;5029619;28;1398;-70
2022/05/22 01:25:20;;;;;;;;;;;;;;;;;;5029355;28;1914;-71
2022/05/22 01:27:46;;;;;;;;;;;;;;;;;;5029556;28;1330;-71
2022/05/22 01:30:23;;;;;;;;;;;;;;;;;;5029403;28;1179;-71
2022/05/22 01:32:58;;;;;;;;;;;;;;;;;;5029375;28;1362;-71
2022/05/22 01:35:26;;;;;;;;;;;;;;;;;;5029339;28;1328;-70
2022/05/22 01:37:54;;;;;;;;;;;;;;;;;;5028948;28;1548;-71
2022/05/22 01:40:20;;;;;;;;;;;;;;;;;;5029334;28;1361;-71
2022/05/22 01:42:50;;;;;;;;;;;;;;;;;;5029908;28;1521;-70
2022/05/22 01:45:18;;;;;;;;;;;;;;;;;;5029153;28;1906;-70
2022/05/22 01:47:44;;;;;;;;;;;;;;;;;;5028955;28;1215;-71
2022/05/22 01:50:12;;;;;;;;;;;;;;;;;;5029461;28;1320;-71
2022/05/22 01:52:39;;;;;;;;;;;;;;;;;;5029318;28;1181;-71
2022/05/22 01:55:08;;;;;;;;;;;;;;;;;;5028890;28;1325;-70
2022/05/22 01:57:35;;;;;;;;;;;;;;;;;;5029000;28;1353;-70
2022/05/22 02:00:01;;;;;;;;;;;;;;;;;;5029380;28;1631;-71
2022/05/22 02:02:27;;;;;;;;;;;;;;;;;;5029286;28;1543;-70
2022/05/22 02:04:57;;;;;;;;;;;;;;;;;;5029155;28;1977;-70
2022/05/22 02:10:11;;;;;;;;;;;;;;;;;;5028845;28;1302;-70
2022/05/22 02:12:37;;;;;;;;;;;;;;;;;;5029084;28;1293;-69
2022/05/22 02:15:06;;;;;;;;;;;;;;;;;;5028486;28;1341;-70
2022/05/22 02:17:33;;;;;;;;;;;;;;;;;;5028824;28;1289;-70
2022/05/22 02:19:59;;;;;;;;;;;;;;;;;;5028908;28;1146;-70
2022/05/22 02:22:39;;;;;;;;;;;;;;;;;;5028973;28;1183;-70
2022/05/22 02:25:06;;;;;;;;;;;;;;;;;;5028620;28;1914;-70
2022/05/22 02:27:34;;;;;;;;;;;;;;;;;;5029819;28;1340;-70
2022/05/22 02:30:01;;;;;;;;;;;;;;;;;;5028845;28;1413;-70
2022/05/22 02:32:29;;;;;;;;;;;;;;;;;;5028715;28;1467;-71
2022/05/22 02:34:55;;;;;;;;;;;;;;;;;;5028776;28;1377;-71
2022/05/22 02:37:22;;;;;;;;;;;;;;;;;;5028364;28;1132;-71
2022/05/22 02:39:48;;;;;;;;;;;;;;;;;;5028693;28;1220;-71
2022/05/22 02:42:32;;;;;;;;;;;;;;;;;;5030145;28;605;-70
2022/05/22 02:45:02;;;;;;;;;;;;;;;;;;5032100;28;1447;-71
2022/05/22 02:47:28;;;;;;;;;;;;;;;;;;5032303;28;1926;-71
2022/05/22 02:49:54;;;;;;;;;;;;;;;;;;5032271;28;1559;-70
2022/05/22 02:52:20;;;;;;;;;;;;;;;;;;5031987;28;1452;-70
2022/05/22 02:54:47;;;;;;;;;;;;;;;;;;5032314;28;1344;-70
2022/05/22 02:57:16;;;;;;;;;;;;;;;;;;5033261;28;778;-72
2022/05/22 02:59:48;;;;;;;;;;;;;;;;;;5032433;28;1332;-70
2022/05/22 03:02:28;;;;;;;;;;;;;;;;;;5032160;28;1224;-70
2022/05/22 03:04:55;;;;;;;;;;;;;;;;;;5032215;28;1440;-71
2022/05/22 03:07:21;;;;;;;;;;;;;;;;;;5031765;28;1975;-70
2022/05/22 03:09:49;;;;;;;;;;;;;;;;;;5031945;28;1545;-70
2022/05/22 03:12:16;;;;;;;;;;;;;;;;;;5033521;28;775;-70
2022/05/22 03:14:45;;;;;;;;;;;;;;;;;;5031960;28;1451;-71
2022/05/22 03:17:11;;;;;;;;;;;;;;;;;;5031744;28;1433;-70
2022/05/22 03:19:58;;;;;;;;;;;;;;;;;;5033678;28;648;-71
2022/05/22 03:22:24;;;;;;;;;;;;;;;;;;5031824;28;1356;-70
2022/05/22 03:24:50;;;;;;;;;;;;;;;;;;5031524;28;1381;-71
2022/05/22 03:27:17;;;;;;;;;;;;;;;;;;5031330;28;1973;-71
2022/05/22 03:29:44;;;;;;;;;;;;;;;;;;5031601;28;1276;-70
2022/05/22 03:32:10;;;;;;;;;;;;;;;;;;5048272;28;1386;-70
2022/05/22 03:34:38;;;;;;;;;;;;;;;;;;5048304;28;1458;-71
2022/05/22 03:37:06;;;;;;;;;;;;;;;;;;5031197;28;1142;-70
2022/05/22 03:39:32;;;;;;;;;;;;;;;;;;5032820;28;1429;-71
2022/05/22 03:41:59;;;;;;;;;;;;;;;;;;5031124;28;1191;-70
2022/05/22 03:44:25;;;;;;;;;;;;;;;;;;5031196;28;1467;-70
2022/05/22 03:46:52;;;;;;;;;;;;;;;;;;5032455;28;1899;-71
2022/05/22 03:49:27;;;;;;;;;;;;;;;;;;5031321;28;1442;-70
2022/05/22 03:51:56;;;;;;;;;;;;;;;;;;5031308;28;1374;-71
2022/05/22 03:54:24;;;;;;;;;;;;;;;;;;5030432;28;1375;-70
2022/05/22 03:56:54;;;;;;;;;;;;;;;;;;5030623;28;1510;-68
2022/05/22 03:59:22;;;;;;;;;;;;;;;;;;5032041;28;822;-71
2022/05/22 04:01:49;;;;;;;;;;;;;;;;;;5033601;28;1151;-70
2022/05/22 04:04:15;;;;;;;;;;;;;;;;;;5031093;28;1315;-71
2022/05/22 04:06:42;;;;;;;;;;;;;;;;;;5030761;28;1918;-71
2022/05/22 04:09:09;;;;;;;;;;;;;;;;;;5030944;28;1447;-71
2022/05/22 04:12:01;;;;;;;;;;;;;;;;;;5031050;28;1352;-71
2022/05/22 04:14:27;;;;;;;;;;;;;;;;;;5024217;28;2204;-71
2022/05/22 04:17:03;;;;;;;;;;;;;;;;;;5010443;28;1063;-71
2022/05/22 04:19:31;;;;;;;;;;;;;;;;;;5011163;28;1329;-69
2022/05/22 04:21:57;;;;;;;;;;;;;;;;;;5010865;28;1451;-71
2022/05/22 04:27:11;;;;;;;;;;;;;;;;;;5010516;28;1993;-70
2022/05/22 04:29:38;;;;;;;;;;;;;;;;;;5010925;28;1179;-71
2022/05/22 04:32:05;;;;;;;;;;;;;;;;;;5010680;28;1057;-70
2022/05/22 04:34:50;;;;;;;;;;;;;;;;;;5010755;28;1428;-72
2022/05/22 04:37:17;;;;;;;;;;;;;;;;;;5011277;28;802;-70
2022/05/22 04:39:46;;;;;;;;;;;;;;;;;;5010758;28;1328;-71
2022/05/22 04:42:14;;;;;;;;;;;;;;;;;;5010516;28;1112;-71
2022/05/22 04:44:41;;;;;;;;;;;;;;;;;;5010498;28;1410;-71
2022/05/22 04:47:24;;;;;;;;;;;;;;;;;;5012748;28;1914;-71
2022/05/22 04:50:10;;;;;;;;;;;;;;;;;;5011931;28;639;-71
2022/05/22 04:52:56;;;;;;;;;;;;;;;;;;5026619;28;1243;-71
2022/05/22 04:55:23;;;;;;;;;;;;;;;;;;5026756;28;1337;-71
2022/05/22 04:57:50;;;;;;;;;;;;;;;;;;5026679;28;1361;-70
2022/05/22 05:00:17;;;;;;;;;;;;;;;;;;5026733;28;1371;-71
2022/05/22 05:02:54;;;;;;;;;;;;;;;;;;5010125;28;1619;-71
2022/05/22 05:05:20;;;;;;;;;;;;;;;;;;5010338;28;1358;-71
2022/05/22 05:07:47;;;;;;;;;;;;;;;;;;5017393;28;1969;-70
2022/05/22 05:10:31;;;;;;;;;;;;;;;;;;5022074;28;964;-71
2022/05/22 05:13:05;;;;;;;;;;;;;;;;;;5029529;28;1191;-70
2022/05/22 05:15:33;;;;;;;;;;;;;;;;;;5029755;28;1398;-72
2022/05/22 05:18:11;;;;;;;;;;;;;;;;;;5029443;28;1372;-72
2022/05/22 05:20:37;;;;;;;;;;;;;;;;;;5029739;28;1645;-71
2022/05/22 05:23:05;;;;;;;;;;;;;;;;;;5029604;28;1404;-71
2022/05/22 05:25:40;;;;;;;;;;;;;;;;;;5029402;28;1289;-71
2022/05/22 05:28:08;;;;;;;;;;;;;;;;;;5029259;28;1933;-71
2022/05/22 05:30:35;;;;;;;;;;;;;;;;;;5029312;28;1196;-71
2022/05/22 05:33:01;;;;;;;;;;;;;;;;;;5029525;28;1506;-72
2022/05/22 05:35:48;;;;;;;;;;;;;;;;;;5030087;28;1282;-71
2022/05/22 05:38:27;;;;;;;;;;;;;;;;;;5029078;28;1368;-72
2022/05/22 05:40:55;;;;;;;;;;;;;;;;;;5029454;28;1159;-71
2022/05/22 05:43:23;;;;;;;;;;;;;;;;;;5029188;28;1274;-71
2022/05/22 05:45:50;;;;;;;;;;;;;;;;;;5029337;28;1308;-70
2022/05/22 05:48:17;;;;;;;;;;;;;;;;;;5028536;28;2420;-71
2022/05/22 05:50:52;;;;;;;;;;;;;;;;;;5029677;28;1261;-70
2022/05/22 05:53:30;;;;;;;;;;;;;;;;;;5029063;28;1695;-71
2022/05/22 05:56:22;;;;;;;;;;;;;;;;;;5030188;28;1099;-71
2022/05/22 05:59:11;;;;;;;;;;;;;;;;;;5029207;28;1499;-71
2022/05/22 06:01:45;;;;;;;;;;;;;;;;;;5029306;28;1319;-71
2022/05/22 06:04:12;;;;;;;;;;;;;;;;;;5028949;28;1384;-71
2022/05/22 06:06:38;;;;;;;;;;;;;;;;;;5029000;28;1977;-70
2022/05/22 06:09:05;;;;;;;;;;;;;;;;;;5030436;28;779;-71
2022/05/22 06:11:41;;;;;;;;;;;;;;;;;;5029146;28;941;-69
2022/05/22 06:14:17;;;;;;;;;;;;;;;;;;5028958;28;1407;-72
2022/05/22 06:16:43;;;;;;;;;;;;;;;;;;5029027;28;1263;-72
2022/05/22 06:19:14;;;;;;;;;;;;;;;;;;5031461;28;1368;-72
2022/05/22 06:21:43;;;;;;;;;;;;;;;;;;5033233;28;1192;-71
2022/05/22 06:24:10;;;;;;;;;;;;;;;;;;5032324;28;1421;-72
2022/05/22 06:26:55;;;;;;;;;;;;;;;;;;5034296;28;1910;-73
2022/05/22 06:29:43;;;;;;;;;;;;;;;;;;5034089;28;865;-72
2022/05/22 06:32:28;;;;;;;;;;;;;;;;;;5034356;28;632;-72
2022/05/22 06:35:17;;;;;;;;;;;;;;;;;;5032832;28;1331;-72
2022/05/22 06:37:55;;;;;;;;;;;;;;;;;;5032490;28;1081;-70
2022/05/22 06:40:40;;;;;;;;;;;;;;;;;;5033770;28;1026;-70
2022/05/22 06:43:35;;;;;;;;;;;;;;;;;;5032105;28;1298;-70
2022/05/22 06:46:28;;;;;;;;;;;;;;;;;;5031866;28;1973;-69
2022/05/22 06:49:14;;;;;;;;;;;;;;;;;;5032210;28;1502;-69
2022/05/22 06:51:58;;;;;;;;;;;;;;;;;;5033724;28;920;-69
2022/05/22 06:54:40;;;;;;;;;;;;;;;;;;5032075;28;1489;-71
2022/05/22 06:57:28;;;;;;;;;;;;;;;;;;5032383;28;1350;-71
2022/05/22 07:00:04;;;;;;;;;;;;;;;;;;5033604;28;897;-70
2022/05/22 07:02:52;;;;;;;;;;;;;;;;;;5033216;28;1021;-70
2022/05/22 07:05:27;;;;;;;;;;;;;;;;;;5032069;28;1424;-71
2022/05/22 07:08:04;;;;;;;;;;;;;;;;;;5031780;28;1922;-71
2022/05/22 07:13:44;;;;;;;;;;;;;;;;;;5032153;28;1719;-72
2022/05/22 07:16:26;;;;;;;;;;;;;;;;;;5031793;28;1555;-70
2022/05/22 07:19:10;;;;;;;;;;;;;;;;;;5031964;28;1360;-71
2022/05/22 07:21:52;;;;;;;;;;;;;;;;;;5031595;28;1467;-72
2022/05/22 07:24:34;;;;;;;;;;;;;;;;;;5031649;28;1369;-70
2022/05/22 07:27:14;;;;;;;;;;;;;;;;;;5031620;28;1910;-71
2022/05/22 07:29:51;;;;;;;;;;;;;;;;;;5031591;28;1636;-70
2022/05/22 07:32:36;;;;;;;;;;;;;;;;;;5033225;28;683;-71
2022/05/22 07:35:16;;;;;;;;;;;;;;;;;;5031640;28;1391;-71
2022/05/22 07:38:04;;;;;;;;;;;;;;;;;;5031117;28;1307;-71
2022/05/22 07:40:55;;;;;;;;;;;;;;;;;;5031496;28;1406;-71
2022/05/22 07:43:46;;;;;;;;;;;;;;;;;;5031508;28;1301;-71
2022/05/22 07:46:26;;;;;;;;;;;;;;;;;;5031265;28;1366;-71
2022/05/22 07:50:16;;;;;;;;;;;;;;;;;;5031543;28;1305;-71
2022/05/22 07:52:22;;;;;;;;;;;;;;;;;;5012784;28;1155;-72
2022/05/22 07:55:14;;;;;;;;;;;;;;;;;;5031110;28;1514;-71
2022/05/22 07:57:51;;;;;;;;;;;;;;;;;;5031010;28;1478;-71
2022/05/22 08:00:37;;;;;;;;;;;;;;;;;;5031894;28;1140;-71
2022/05/22 08:03:07;;;;;;;;;;;;;;;;;;5031211;28;1247;-71
2022/05/22 08:05:34;;;;;;;;;;;;;;;;;;5031164;28;1404;-68
2022/05/22 08:08:04;;;;;;;;;;;;;;;;;;5030736;28;1973;-71
2022/05/22 08:10:49;;;;;;;;;;;;;;;;;;5031122;28;1605;-71
2022/05/22 08:13:22;;;;;;;;;;;;;;;;;;5030868;28;1548;-73
2022/05/22 08:15:48;;;;;;;;;;;;;;;;;;5030497;28;1416;-72
2022/05/22 08:18:28;;;;;;;;;;;;;;;;;;5030742;28;1328;-72
2022/05/22 08:20:54;;;;;;;;;;;;;;;;;;5030944;28;1191;-72
2022/05/22 08:23:24;;;;;;;;;;;;;;;;;;5030716;28;1523;-71
2022/05/22 08:25:59;;;;;;;;;;;;;;;;;;5030608;28;1348;-69
2022/05/22 08:28:27;;;;;;;;;;;;;;;;;;5030560;28;1923;-71
2022/05/22 08:30:55;;;;;;;;;;;;;;;;;;5030676;28;1074;-71
2022/05/22 08:33:25;;;;;;;;;;;;;;;;;;5030445;28;1393;-70
2022/05/22 08:35:52;;;;;;;;;;;;;;;;;;5031485;28;1376;-71
2022/05/22 08:38:18;;;;;;;;;;;;;;;;;;5031465;28;1126;-71
2022/05/22 08:40:49;;;;;;;;;;;;;;;;;;5031284;28;842;-71
2022/05/22 08:43:16;;;;;;;;;;;;;;;;;;5031602;28;988;-71
2022/05/22 08:45:43;;;;;;;;;;;;;;;;;;5030490;28;1381;-71
2022/05/22 08:48:11;;;;;;;;;;;;;;;;;;5031252;28;1910;-70
2022/05/22 08:50:37;;;;;;;;;;;;;;;;;;5031592;28;1067;-71
2022/05/22 08:53:04;;;;;;;;;;;;;;;;;;5031238;28;1123;-71
2022/05/22 09:01:00;;;;;;;;;;;;;;;;;;5031424;28;1114;-70
2022/05/22 09:03:28;;;;;;;;;;;;;;;;;;5031020;28;1567;-71
2022/05/22 09:05:55;;;;;;;;;;;;;;;;;;5031219;28;1368;-71
2022/05/22 09:08:21;;;;;;;;;;;;;;;;;;5030571;28;1961;-70
2022/05/22 09:10:50;;;;;;;;;;;;;;;;;;5031134;28;1171;-71
2022/05/22 09:13:20;;;;;;;;;;;;;;;;;;5031068;28;1202;-72
2022/05/22 09:15:47;;;;;;;;;;;;;;;;;;5031143;28;1297;-71
2022/05/22 09:18:16;;;;;;;;;;;;;;;;;;5030671;28;863;-71
2022/05/22 09:20:44;;;;;;;;;;;;;;;;;;5031074;28;1064;-71
2022/05/22 09:23:15;;;;;;;;;;;;;;;;;;5030743;28;957;-70
2022/05/22 09:25:43;;;;;;;;;;;;;;;;;;5029544;28;1430;-71
2022/05/22 09:28:11;;;;;;;;;;;;;;;;;;5030250;28;1907;-72
2022/05/22 09:30:40;;;;;;;;;;;;;;;;;;5030822;28;1114;-72
2022/05/22 09:33:09;;;;;;;;;;;;;;;;;;5030627;28;1060;-71
2022/05/22 09:35:38;;;;;;;;;;;;;;;;;;5030253;28;1463;-71
2022/05/22 09:38:10;;;;;;;;;;;;;;;;;;5030242;28;1326;-72
2022/05/22 09:40:41;;;;;;;;;;;;;;;;;;5029439;28;834;-72
2022/05/22 09:43:14;;;;;;;;;;;;;;;;;;5030452;28;1071;-71
2022/05/22 09:45:44;;;;;;;;;;;;;;;;;;5030133;28;1322;-71
2022/05/22 09:48:14;;;;;;;;;;;;;;;;;;5030090;28;1914;-71
2022/05/22 09:50:42;;;;;;;;;;;;;;;;;;5030918;28;1111;-73
2022/05/22 09:53:11;;;;;;;;;;;;;;;;;;5031819;28;1131;-71
2022/05/22 09:55:41;;;;;;;;;;;;;;;;;;5032551;28;1285;-72
2022/05/22 09:58:11;;;;;;;;;;;;;;;;;;5030161;28;1132;-71
2022/05/22 10:00:38;;;;;;;;;;;;;;;;;;5030425;28;1079;-71
2022/05/22 10:03:08;;;;;;;;;;;;;;;;;;5030194;28;1111;-70
2022/05/22 10:05:37;;;;;;;;;;;;;;;;;;5030294;28;1287;-72
2022/05/22 10:08:06;;;;;;;;;;;;;;;;;;5029974;28;1915;-69
2022/05/22 10:10:34;;;;;;;;;;;;;;;;;;5030551;28;1056;-71
2022/05/22 10:13:02;;;;;;;;;;;;;;;;;;5029308;28;1554;-71
2022/05/22 10:15:31;;;;;;;;;;;;;;;;;;5030076;28;1254;-71
2022/05/22 10:18:07;;;;;;;;;;;;;;;;;;5030571;28;1096;-71
2022/05/22 10:20:38;;;;;;;;;;;;;;;;;;5030242;28;826;-70
2022/05/22 10:23:05;;;;;;;;;;;;;;;;;;5030176;28;1091;-70
2022/05/22 10:25:35;;;;;;;;;;;;;;;;;;5030266;28;1368;-70
2022/05/22 10:28:02;;;;;;;;;;;;;;;;;;5028867;28;1918;-71
2022/05/22 10:30:30;;;;;;;;;;;;;;;;;;5030228;28;1088;-70
2022/05/22 10:32:58;;;;;;;;;;;;;;;;;;5030301;28;1131;-70
2022/05/22 10:35:25;;;;;;;;;;;;;;;;;;5029912;28;1302;-71
2022/05/22 10:37:53;;;;;;;;;;;;;;;;;;5030185;28;929;-71
2022/05/22 10:40:20;;;;;;;;;;;;;;;;;;5030109;28;852;-71
2022/05/22 10:42:46;;;;;;;;;;;;;;;;;;5030066;28;1259;-70
2022/05/22 10:45:19;;;;;;;;;;;;;;;;;;5029549;28;1408;-72
2022/05/22 10:47:45;;;;;;;;;;;;;;;;;;5029705;28;1971;-71
2022/05/22 10:50:15;;;;;;;;;;;;;;;;;;5029921;28;865;-72
2022/05/22 10:52:41;;;;;;;;;;;;;;;;;;5030014;28;1135;-72
2022/05/22 10:55:17;;;;;;;;;;;;;;;;;;5029445;28;1324;-71
2022/05/22 10:57:53;;;;;;;;;;;;;;;;;;5029594;28;886;-71
2022/05/22 11:00:19;;;;;;;;;;;;;;;;;;5030009;28;961;-70
2022/05/22 11:02:45;;;;;;;;;;;;;;;;;;5029867;28;1075;-69
2022/05/22 11:05:15;;;;;;;;;;;;;;;;;;5030702;28;1551;-71
2022/05/22 11:07:43;;;;;;;;;;;;;;;;;;5027343;28;1701;-69
2022/05/22 11:10:10;;;;;;;;;;;;;;;;;;5023698;28;2115;-70
2022/05/22 11:12:37;;;;;;;;;;;;;;;;;;5022620;28;1122;-71
2022/05/22 11:15:05;;;;;;;;;;;;;;;;;;5032018;28;1405;-71
2022/05/22 11:17:31;;;;;;;;;;;;;;;;;;5033412;28;849;-70
2022/05/22 11:19:58;;;;;;;;;;;;;;;;;;5032943;28;965;-70
2022/05/22 11:22:30;;;;;;;;;;;;;;;;;;5031940;28;1190;-70
2022/05/22 11:24:59;;;;;;;;;;;;;;;;;;5033237;28;1328;-71
2022/05/22 11:27:28;;;;;;;;;;;;;;;;;;5032715;28;936;-71
2022/05/22 11:30:01;;;;;;;;;;;;;;;;;;5032858;28;1914;-70
2022/05/22 11:32:30;;;;;;;;;;;;;;;;;;5033086;28;925;-72
2022/05/22 11:35:07;;;;;;;;;;;;;;;;;;5032870;28;1369;-70
2022/05/22 11:37:36;;;;;;;;;;;;;;;;;;5032598;28;1092;-71
2022/05/22 11:40:05;;;;;;;;;;;;;;;;;;5032769;28;1110;-71
2022/05/22 11:42:33;;;;;;;;;;;;;;;;;;5032679;28;787;-71
2022/05/22 11:45:15;;;;;;;;;;;;;;;;;;5032423;28;1286;-71
2022/05/22 11:47:46;;;;;;;;;;;;;;;;;;5032556;28;807;-70
2022/05/22 11:50:21;;;;;;;;;;;;;;;;;;5032568;28;1914;-71
2022/05/22 11:52:55;;;;;;;;;;;;;;;;;;5032626;28;1133;-71
2022/05/22 11:55:26;;;;;;;;;;;;;;;;;;5031500;28;1415;-70
2022/05/22 11:57:54;;;;;;;;;;;;;;;;;;5032586;28;1076;-71
2022/05/22 12:00:23;;;;;;;;;;;;;;;;;;5032656;28;774;-71
2022/05/22 12:02:52;;;;;;;;;;;;;;;;;;5032405;28;1098;-70
2022/05/22 12:05:22;;;;;;;;;;;;;;;;;;5032429;28;1325;-70
2022/05/22 12:07:55;;;;;;;;;;;;;;;;;;5032008;28;905;-70
2022/05/22 12:10:22;;;;;;;;;;;;;;;;;;5030935;28;1976;-71
2022/05/22 12:12:50;;;;;;;;;;;;;;;;;;5032006;28;758;-70
2022/05/22 12:15:20;;;;;;;;;;;;;;;;;;5032395;28;1312;-71
2022/05/22 12:17:50;;;;;;;;;;;;;;;;;;5031743;28;948;-70
2022/05/22 12:20:19;;;;;;;;;;;;;;;;;;5032243;28;1008;-70
2022/05/22 12:25:31;;;;;;;;;;;;;;;;;;5030429;28;1466;-71
2022/05/22 12:27:57;;;;;;;;;;;;;;;;;;5031831;28;775;-71
2022/05/22 12:30:24;;;;;;;;;;;;;;;;;;5031711;28;1914;-71
2022/05/22 12:32:54;;;;;;;;;;;;;;;;;;5031446;28;1076;-71
2022/05/22 12:35:20;;;;;;;;;;;;;;;;;;5031871;28;1310;-72
2022/05/22 12:37:47;;;;;;;;;;;;;;;;;;5031517;28;870;-70
2022/05/22 12:40:25;;;;;;;;;;;;;;;;;;5031999;28;1016;-71
2022/05/22 12:42:52;;;;;;;;;;;;;;;;;;5031729;28;1127;-70
2022/05/22 12:45:18;;;;;;;;;;;;;;;;;;5031900;28;1388;-70
2022/05/22 12:47:45;;;;;;;;;;;;;;;;;;5030062;28;1235;-70
2022/05/22 12:50:24;;;;;;;;;;;;;;;;;;5031779;28;1918;-71
2022/05/22 12:52:51;;;;;;;;;;;;;;;;;;5031569;28;1353;-71
2022/05/22 12:55:20;;;;;;;;;;;;;;;;;;5031622;28;1472;-72
2022/05/22 12:57:51;;;;;;;;;;;;;;;;;;5030177;28;1223;-71
2022/05/22 13:00:27;;;;;;;;;;;;;;;;;;5031708;28;794;-71
2022/05/22 13:02:54;;;;;;;;;;;;;;;;;;5031537;28;1012;-71
2022/05/22 13:05:28;;;;;;;;;;;;;;;;;;5031293;28;1862;-71
2022/05/22 13:07:54;;;;;;;;;;;;;;;;;;5030646;28;811;-71
2022/05/22 13:10:21;;;;;;;;;;;;;;;;;;5031331;28;1918;-71
2022/05/22 13:12:51;;;;;;;;;;;;;;;;;;5030966;28;1472;-69
2022/05/22 13:15:17;;;;;;;;;;;;;;;;;;5031483;28;1403;-71
2022/05/22 13:17:50;;;;;;;;;;;;;;;;;;5031144;28;1470;-72
2022/05/22 13:20:23;;;;;;;;;;;;;;;;;;5031419;28;1080;-72
2022/05/22 13:23:01;;;;;;;;;;;;;;;;;;5031388;28;1119;-71
2022/05/22 13:25:29;;;;;;;;;;;;;;;;;;5030815;28;1357;-69
2022/05/22 13:27:55;;;;;;;;;;;;;;;;;;5030438;28;1072;-70
2022/05/22 13:30:22;;;;;;;;;;;;;;;;;;5029374;28;1926;-70
2022/05/22 13:32:50;;;;;;;;;;;;;;;;;;5030835;28;964;-71
2022/05/22 13:35:17;;;;;;;;;;;;;;;;;;5030984;28;1310;-70
2022/05/22 13:37:44;;;;;;;;;;;;;;;;;;5030492;28;1124;-69
2022/05/22 13:40:13;;;;;;;;;;;;;;;;;;5030828;28;1123;-71
2022/05/22 13:43:04;;;;;;;;;;;;;;;;;;5030691;28;837;-71
2022/05/22 13:45:34;;;;;;;;;;;;;;;;;;5010405;28;1312;-71
2022/05/22 13:48:08;;;;;;;;;;;;;;;;;;5030720;28;782;-71
2022/05/22 13:53:21;;;;;;;;;;;;;;;;;;5030446;28;622;-71
2022/05/22 13:55:49;;;;;;;;;;;;;;;;;;5030227;28;1795;-71
2022/05/22 13:58:21;;;;;;;;;;;;;;;;;;5030170;28;1110;-71
2022/05/22 14:00:48;;;;;;;;;;;;;;;;;;5030012;28;1084;-71
2022/05/22 14:03:18;;;;;;;;;;;;;;;;;;5030273;28;1060;-71
2022/05/22 14:05:45;;;;;;;;;;;;;;;;;;5030298;28;1297;-71
2022/05/22 14:08:11;;;;;;;;;;;;;;;;;;5029933;28;1503;-71
2022/05/22 14:10:41;;;;;;;;;;;;;;;;;;5030267;28;1997;-71
2022/05/22 14:13:13;;;;;;;;;;;;;;;;;;5028789;28;1378;-71
2022/05/22 14:15:40;;;;;;;;;;;;;;;;;;5030245;28;1278;-70
2022/05/22 14:18:13;;;;;;;;;;;;;;;;;;5029894;28;885;-71
2022/05/22 14:20:41;;;;;;;;;;;;;;;;;;5030056;28;890;-71
2022/05/22 14:23:09;;;;;;;;;;;;;;;;;;5030026;28;726;-70
2022/05/22 14:25:36;;;;;;;;;;;;;;;;;;5028692;28;1384;-72
2022/05/22 14:28:04;;;;;;;;;;;;;;;;;;5029836;28;985;-71
2022/05/22 14:30:34;;;;;;;;;;;;;;;;;;5030065;28;2395;-71
2022/05/22 14:33:02;;;;;;;;;;;;;;;;;;5030017;28;1087;-72
2022/05/22 14:35:29;;;;;;;;;;;;;;;;;;5030122;28;1388;-72
2022/05/22 14:37:56;;;;;;;;;;;;;;;;;;5029817;28;1076;-72
2022/05/22 14:40:25;;;;;;;;;;;;;;;;;;5032542;28;1064;-72
2022/05/22 14:42:55;;;;;;;;;;;;;;;;;;5033634;28;986;-72
2022/05/22 14:45:25;;;;;;;;;;;;;;;;;;5033765;28;1282;-71
2022/05/22 14:47:52;;;;;;;;;;;;;;;;;;5033528;28;1068;-71
2022/05/22 14:50:22;;;;;;;;;;;;;;;;;;5033902;28;1914;-72
2022/05/22 14:52:50;;;;;;;;;;;;;;;;;;5032169;28;1028;-72
2022/05/22 14:55:20;;;;;;;;;;;;;;;;;;5033298;28;1271;-72
2022/05/22 14:57:46;;;;;;;;;;;;;;;;;;5033375;28;711;-71
2022/05/22 15:00:14;;;;;;;;;;;;;;;;;;5033524;28;1063;-71
2022/05/22 15:02:41;;;;;;;;;;;;;;;;;;5033442;28;1080;-70
2022/05/22 15:05:09;;;;;;;;;;;;;;;;;;5033536;28;1307;-73
2022/05/22 15:07:36;;;;;;;;;;;;;;;;;;5033111;28;1430;-71
2022/05/22 15:10:04;;;;;;;;;;;;;;;;;;5033342;28;1918;-71
2022/05/22 15:12:32;;;;;;;;;;;;;;;;;;5031661;28;1378;-72
2022/05/22 15:14:58;;;;;;;;;;;;;;;;;;5033365;28;1297;-71
2022/05/22 15:17:26;;;;;;;;;;;;;;;;;;5032923;28;1052;-70
2022/05/22 15:19:53;;;;;;;;;;;;;;;;;;5032896;28;1575;-72
2022/05/22 15:25:33;;;;;;;;;;;;;;;;;;5033428;28;1420;-72
2022/05/22 15:28:00;;;;;;;;;;;;;;;;;;5032757;28;1112;-72
2022/05/22 15:30:28;;;;;;;;;;;;;;;;;;5032941;28;1918;-72
2022/05/22 15:33:01;;;;;;;;;;;;;;;;;;5032871;28;1059;-72
2022/05/22 15:35:27;;;;;;;;;;;;;;;;;;5032998;28;1305;-71
2022/05/22 15:37:55;;;;;;;;;;;;;;;;;;5031345;28;1424;-72
2022/05/22 15:40:21;;;;;;;;;;;;;;;;;;5033035;28;1007;-72
2022/05/22 15:43:03;;;;;;;;;;;;;;;;;;5032774;28;1377;-72
2022/05/22 15:45:30;;;;;;;;;;;;;;;;;;5032578;28;1314;-72
2022/05/22 15:47:57;;;;;;;;;;;;;;;;;;5032442;28;1079;-72
2022/05/22 15:53:08;;;;;;;;;;;;;;;;;;5032504;28;949;-72
2022/05/22 15:55:39;;;;;;;;;;;;;;;;;;5032752;28;1282;-71
2022/05/22 15:58:05;;;;;;;;;;;;;;;;;;5032444;28;1307;-72
2022/05/22 16:00:31;;;;;;;;;;;;;;;;;;5032683;28;997;-73
2022/05/22 16:02:58;;;;;;;;;;;;;;;;;;5032472;28;1079;-72
2022/05/22 16:05:25;;;;;;;;;;;;;;;;;;5032131;28;1390;-72
2022/05/22 16:07:52;;;;;;;;;;;;;;;;;;5032337;28;894;-72
2022/05/22 16:10:21;;;;;;;;;;;;;;;;;;5032845;28;1918;-72
2022/05/22 16:12:47;;;;;;;;;;;;;;;;;;5032537;28;1060;-72
2022/05/22 16:15:14;;;;;;;;;;;;;;;;;;5032283;28;1277;-72
2022/05/22 16:17:46;;;;;;;;;;;;;;;;;;5031983;28;862;-72
2022/05/22 16:20:12;;;;;;;;;;;;;;;;;;5032244;28;1127;-72
2022/05/22 16:22:39;;;;;;;;;;;;;;;;;;5031565;28;1080;-72
2022/05/22 16:25:06;;;;;;;;;;;;;;;;;;5033179;28;1334;-72
2022/05/22 16:27:33;;;;;;;;;;;;;;;;;;5031968;28;961;-73
2022/05/22 16:30:00;;;;;;;;;;;;;;;;;;5031762;28;1981;-72
2022/05/22 16:32:26;;;;;;;;;;;;;;;;;;5030838;28;1305;-72
2022/05/22 16:34:53;;;;;;;;;;;;;;;;;;5032050;28;1369;-72
2022/05/22 16:37:21;;;;;;;;;;;;;;;;;;5032131;28;877;-72
2022/05/22 16:39:47;;;;;;;;;;;;;;;;;;5032363;28;1131;-71
2022/05/22 16:42:13;;;;;;;;;;;;;;;;;;5031824;28;854;-71
2022/05/22 16:44:41;;;;;;;;;;;;;;;;;;5031779;28;1298;-72
2022/05/22 16:55:16;;;;;;;;;;;;;;;;;;5030419;28;1469;-72
2022/05/22 16:57:42;;;;;;;;;;;;;;;;;;5031486;28;1120;-71
2022/05/22 17:00:10;;;;;;;;;;;;;;;;;;5029907;28;1129;-71
2022/05/22 17:02:36;;;;;;;;;;;;;;;;;;5031078;28;1008;-72
2022/05/22 17:05:03;;;;;;;;;;;;;;;;;;5031597;28;1282;-71
2022/05/22 17:07:29;;;;;;;;;;;;;;;;;;5030002;28;996;-72
2022/05/22 17:09:56;;;;;;;;;;;;;;;;;;5027502;28;2222;-71
2022/05/22 17:12:22;;;;;;;;;;;;;;;;;;5017799;28;1635;-72
2022/05/22 17:14:49;;;;;;;;;;;;;;;;;;5027920;28;1376;-72
2022/05/22 17:17:16;;;;;;;;;;;;;;;;;;5031131;28;1091;-72
2022/05/22 17:19:43;;;;;;;;;;;;;;;;;;5031153;28;1111;-72
2022/05/22 17:22:11;;;;;;;;;;;;;;;;;;5030983;28;1401;-70
2022/05/22 17:24:39;;;;;;;;;;;;;;;;;;5030371;28;1433;-71
2022/05/22 17:27:06;;;;;;;;;;;;;;;;;;5031700;28;1060;-71
2022/05/22 17:29:32;;;;;;;;;;;;;;;;;;5046580;28;1159;-72
2022/05/22 17:32:00;;;;;;;;;;;;;;;;;;5030967;28;1973;-72
2022/05/22 17:34:28;;;;;;;;;;;;;;;;;;5030724;28;1278;-72
2022/05/22 17:36:54;;;;;;;;;;;;;;;;;;5030857;28;1059;-72
2022/05/22 17:39:20;;;;;;;;;;;;;;;;;;5031063;28;1083;-72
2022/05/22 17:41:46;;;;;;;;;;;;;;;;;;5046180;28;1224;-71
2022/05/22 17:44:12;;;;;;;;;;;;;;;;;;5030629;28;1282;-72
2022/05/22 17:46:38;;;;;;;;;;;;;;;;;;5030253;28;1075;-72
2022/05/22 17:49:05;;;;;;;;;;;;;;;;;;5030441;28;898;-72
2022/05/22 17:51:36;;;;;;;;;;;;;;;;;;5045326;28;1985;-71
2022/05/22 17:54:05;;;;;;;;;;;;;;;;;;5030395;28;1321;-71
2022/05/22 17:56:31;;;;;;;;;;;;;;;;;;5030157;28;937;-71
2022/05/22 17:58:57;;;;;;;;;;;;;;;;;;5030365;28;1139;-72
2022/05/22 18:01:26;;;;;;;;;;;;;;;;;;5045594;28;1198;-70
2022/05/22 18:03:52;;;;;;;;;;;;;;;;;;5030360;28;992;-72
2022/05/22 18:06:18;;;;;;;;;;;;;;;;;;5030352;28;1311;-71